Time;durP1;ratioP1;P1;durP2;ratioP2;P2;SDS_P1;SDS_P2;PMS_P1;PMS_P2;Temp;Humidity;BMP_temperature;BMP_pressure;BME280_temperature;BME280_humidity;BME280_pressure;Samples;Min_cycle;Max_cycle;Signal;HPM_P1;HPM_P2
2022/11/14 00:02:25;;;;;;;1999.90;999.90;;;6.60;99.90;;;;;;5019706;28;20037;-67
2022/11/14 00:04:51;;;;;;;1999.90;999.90;;;6.60;99.90;;;;;;5039186;28;20044;-67
2022/11/14 00:07:17;;;;;;;1999.90;999.90;;;6.60;99.90;;;;;;5036225;28;20053;-67
2022/11/14 00:09:42;;;;;;;1999.90;999.90;;;6.60;99.90;;;;;;5043022;28;20051;-67
2022/11/14 00:12:09;;;;;;;1999.90;999.90;;;6.70;99.90;;;;;;5040135;28;20052;-67
2022/11/14 00:14:35;;;;;;;1999.90;999.90;;;6.70;99.90;;;;;;5038105;28;20045;-67
2022/11/14 00:17:01;;;;;;;1999.90;999.90;;;6.70;99.90;;;;;;5019029;28;20095;-67
2022/11/14 00:19:27;;;;;;;1999.90;999.90;;;6.70;99.90;;;;;;5044654;28;20033;-67
2022/11/14 00:21:53;;;;;;;1999.90;999.90;;;6.70;99.90;;;;;;5043603;28;20051;-67
2022/11/14 00:24:19;;;;;;;1999.90;999.90;;;6.70;99.90;;;;;;5039301;28;20128;-67
2022/11/14 00:26:44;;;;;;;1999.90;999.90;;;6.70;99.90;;;;;;5042364;28;20527;-67
2022/11/14 00:29:11;;;;;;;1999.90;999.90;;;6.70;99.90;;;;;;5034624;28;20041;-67
2022/11/14 00:31:37;;;;;;;1999.90;999.90;;;6.70;99.90;;;;;;5039790;28;20079;-67
2022/11/14 00:34:03;;;;;;;1999.90;999.90;;;6.80;99.90;;;;;;5036150;28;20151;-67
2022/11/14 00:36:29;;;;;;;1999.90;999.90;;;6.70;99.90;;;;;;5040141;28;20048;-67
2022/11/14 00:38:54;;;;;;;1999.90;999.90;;;6.80;99.90;;;;;;5039871;28;20048;-67
2022/11/14 00:41:20;;;;;;;1999.90;999.90;;;6.80;99.90;;;;;;5040371;28;20476;-67
2022/11/14 00:43:46;;;;;;;1999.90;999.90;;;6.80;99.90;;;;;;5028984;28;20041;-67
2022/11/14 00:46:11;;;;;;;1999.90;999.90;;;6.80;99.90;;;;;;5046287;28;20144;-67
2022/11/14 00:48:37;;;;;;;1999.90;999.90;;;6.80;99.90;;;;;;5043085;28;20037;-67
2022/11/14 00:51:03;;;;;;;1999.90;999.90;;;6.90;99.90;;;;;;5045109;28;20091;-67
2022/11/14 00:53:28;;;;;;;1999.90;999.90;;;6.90;99.90;;;;;;5030923;28;20038;-67
2022/11/14 00:55:54;;;;;;;1999.90;999.90;;;6.90;99.90;;;;;;5022677;28;20045;-67
2022/11/14 00:58:19;;;;;;;1999.90;999.90;;;6.90;99.90;;;;;;5042082;28;20511;-67
2022/11/14 01:00:45;;;;;;;1999.90;999.90;;;6.90;99.90;;;;;;5038889;28;20134;-67
2022/11/14 01:03:10;;;;;;;1999.90;999.90;;;6.90;99.90;;;;;;5037363;28;20037;-67
2022/11/14 01:05:41;;;;;;;1999.90;999.90;;;6.90;99.90;;;;;;5037243;28;21201;-67
2022/11/14 01:08:06;;;;;;;1999.90;999.90;;;7.00;99.90;;;;;;5037547;28;20044;-67
2022/11/14 01:10:32;;;;;;;1999.90;999.90;;;6.90;99.90;;;;;;5039310;28;20033;-67
2022/11/14 01:12:57;;;;;;;1999.90;999.90;;;6.90;99.90;;;;;;5040818;28;20598;-67
2022/11/14 01:15:23;;;;;;;1999.90;999.90;;;6.90;99.90;;;;;;5038245;28;20059;-67
2022/11/14 01:17:49;;;;;;;1999.90;999.90;;;7.00;99.90;;;;;;5036300;28;20051;-67
2022/11/14 01:20:15;;;;;;;1999.90;999.90;;;7.00;99.90;;;;;;5016317;28;20175;-67
2022/11/14 01:22:40;;;;;;;1999.90;999.90;;;7.00;99.90;;;;;;5040614;28;20048;-67
2022/11/14 01:25:06;;;;;;;1999.90;999.90;;;7.00;99.90;;;;;;5020257;28;20543;-67
2022/11/14 01:27:32;;;;;;;1999.90;999.90;;;7.00;99.90;;;;;;5041768;28;20037;-67
2022/11/14 01:29:58;;;;;;;1999.90;999.90;;;7.00;99.90;;;;;;5043559;28;20028;-67
2022/11/14 01:32:25;;;;;;;1999.90;999.90;;;7.00;99.90;;;;;;5038248;28;20056;-67
2022/11/14 01:34:50;;;;;;;1999.90;999.90;;;7.00;99.90;;;;;;5036683;28;20041;-67
2022/11/14 01:37:16;;;;;;;1999.90;999.90;;;7.00;99.90;;;;;;5039684;28;20579;-67
2022/11/14 01:39:41;;;;;;;1999.90;999.90;;;7.00;99.90;;;;;;5036938;28;20139;-67
2022/11/14 01:42:07;;;;;;;1999.90;999.90;;;7.00;99.90;;;;;;5044533;28;20041;-67
2022/11/14 01:44:59;;;;;;;1999.90;999.90;;;7.00;99.90;;;;;;5034174;28;20037;-67
2022/11/14 01:47:31;;;;;;;1999.90;999.90;;;7.00;99.90;;;;;;5032522;28;20057;-67
2022/11/14 01:50:03;;;;;;;1999.90;999.90;;;7.00;99.90;;;;;;5035817;28;20076;-67
2022/11/14 01:52:38;;;;;;;1999.90;999.90;;;7.00;99.90;;;;;;5032817;28;20781;-67
2022/11/14 01:55:09;;;;;;;1999.90;999.90;;;7.00;99.90;;;;;;5036886;28;20046;-67
2022/11/14 01:57:45;;;;;;;1999.90;999.90;;;7.00;99.90;;;;;;5040234;28;20041;-67
2022/11/14 02:00:11;;;;;;;1999.90;999.90;;;6.90;99.90;;;;;;5038462;28;20036;-67
2022/11/14 02:02:37;;;;;;;1999.90;999.90;;;6.90;99.90;;;;;;5038880;28;20080;-67
2022/11/14 02:05:06;;;;;;;1999.90;999.90;;;6.90;99.90;;;;;;5033719;28;20096;-67
2022/11/14 02:07:35;;;;;;;1999.90;999.90;;;6.90;99.90;;;;;;5034702;28;20040;-67
2022/11/14 02:10:05;;;;;;;1999.90;999.90;;;6.90;99.90;;;;;;5041855;28;20037;-67
2022/11/14 02:12:31;;;;;;;1999.90;999.90;;;6.80;99.90;;;;;;5042619;28;20047;-67
2022/11/14 02:14:58;;;;;;;1999.90;999.90;;;6.80;99.90;;;;;;5041917;28;20047;-67
2022/11/14 02:17:24;;;;;;;1999.90;999.90;;;6.80;99.90;;;;;;5039322;28;20147;-67
2022/11/14 02:20:00;;;;;;;1999.90;999.90;;;6.80;99.90;;;;;;5038870;28;20039;-67
2022/11/14 02:22:25;;;;;;;1999.90;999.90;;;6.80;99.90;;;;;;5044817;28;20048;-67
2022/11/14 02:24:51;;;;;;;1999.90;999.90;;;6.80;99.90;;;;;;5036035;28;20832;-67
2022/11/14 02:27:16;;;;;;;1999.90;999.90;;;6.80;99.90;;;;;;5029688;28;20052;-67
2022/11/14 02:29:42;;;;;;;1999.90;999.90;;;6.70;99.90;;;;;;5047605;28;20843;-67
2022/11/14 02:32:08;;;;;;;1999.90;999.90;;;6.70;99.90;;;;;;5045629;28;20095;-67
2022/11/14 02:34:33;;;;;;;1999.90;999.90;;;6.70;99.90;;;;;;5043709;28;20095;-67
2022/11/14 02:36:59;;;;;;;1999.90;999.90;;;6.70;99.90;;;;;;5027564;28;20048;-67
2022/11/14 02:39:25;;;;;;;1999.90;999.90;;;6.70;99.90;;;;;;5039835;28;20545;-67
2022/11/14 02:41:50;;;;;;;1999.90;999.90;;;6.70;99.90;;;;;;5045112;28;20128;-67
2022/11/14 02:44:17;;;;;;;1999.90;999.90;;;6.70;99.90;;;;;;5042180;28;20045;-67
2022/11/14 02:46:42;;;;;;;1999.90;999.90;;;6.60;99.90;;;;;;5044873;28;20033;-67
2022/11/14 02:49:08;;;;;;;1999.90;999.90;;;6.60;99.90;;;;;;5043777;28;20546;-67
2022/11/14 02:51:33;;;;;;;1999.90;999.90;;;6.60;99.90;;;;;;5044202;28;20044;-67
2022/11/14 02:54:00;;;;;;;1999.90;999.90;;;6.60;99.90;;;;;;5046945;28;20049;-67
2022/11/14 02:56:26;;;;;;;1999.90;999.90;;;6.60;99.90;;;;;;5024133;28;20051;-67
2022/11/14 02:58:51;;;;;;;1999.90;999.90;;;6.60;99.90;;;;;;5044084;28;20033;-67
2022/11/14 03:01:17;;;;;;;1999.90;999.90;;;6.60;99.90;;;;;;5042466;28;20049;-67
2022/11/14 03:03:43;;;;;;;1999.90;999.90;;;6.60;99.90;;;;;;5047591;28;20649;-67
2022/11/14 03:06:08;;;;;;;1999.90;999.90;;;6.60;99.90;;;;;;5035167;28;20033;-67
2022/11/14 03:08:34;;;;;;;1999.90;999.90;;;6.70;99.90;;;;;;5035671;28;20443;-67
2022/11/14 03:11:04;;;;;;;1999.90;999.90;;;6.70;99.90;;;;;;5040687;28;20062;-67
2022/11/14 03:13:30;;;;;;;1999.90;999.90;;;6.70;99.90;;;;;;5035929;28;20037;-67
2022/11/14 03:15:56;;;;;;;1999.90;999.90;;;6.70;99.90;;;;;;5039652;28;20044;-67
2022/11/14 03:18:21;;;;;;;1999.90;999.90;;;6.70;99.90;;;;;;5024362;28;20037;-67
2022/11/14 03:20:47;;;;;;;1999.90;999.90;;;6.70;99.90;;;;;;5045155;28;20778;-67
2022/11/14 03:23:13;;;;;;;1999.90;999.90;;;6.80;99.90;;;;;;5040836;28;20408;-67
2022/11/14 03:25:38;;;;;;;1999.90;999.90;;;6.80;99.90;;;;;;5042115;28;20049;-67
2022/11/14 03:28:04;;;;;;;1999.90;999.90;;;6.80;99.90;;;;;;5046628;28;20072;-67
2022/11/14 03:30:30;;;;;;;1999.90;999.90;;;6.80;99.90;;;;;;5038191;28;20842;-67
2022/11/14 03:32:56;;;;;;;1999.90;999.90;;;6.80;99.90;;;;;;5042009;28;20605;-67
2022/11/14 03:35:22;;;;;;;1999.90;999.90;;;6.80;99.90;;;;;;5041586;28;20040;-67
2022/11/14 03:37:47;;;;;;;1999.90;999.90;;;6.80;99.90;;;;;;5054888;28;20724;-67
2022/11/14 03:40:13;;;;;;;1999.90;999.90;;;6.80;99.90;;;;;;5027042;28;20040;-67
2022/11/14 03:42:39;;;;;;;1999.90;999.90;;;6.80;99.90;;;;;;5041067;28;20068;-67
2022/11/14 03:45:05;;;;;;;1999.90;999.90;;;6.80;99.90;;;;;;5041397;28;20040;-67
2022/11/14 03:47:30;;;;;;;1999.90;999.90;;;6.80;99.90;;;;;;5041847;28;20041;-67
2022/11/14 03:49:56;;;;;;;1999.90;999.90;;;6.80;99.90;;;;;;5038091;28;20044;-67
2022/11/14 03:52:21;;;;;;;1999.90;999.90;;;6.80;99.90;;;;;;5055028;28;20052;-67
2022/11/14 03:54:47;;;;;;;1999.90;999.90;;;6.80;99.90;;;;;;5037853;28;20056;-67
2022/11/14 03:57:12;;;;;;;1999.90;999.90;;;6.80;99.90;;;;;;5044360;28;20047;-67
2022/11/14 03:59:39;;;;;;;1999.90;999.90;;;6.80;99.90;;;;;;5024585;28;20053;-67
2022/11/14 04:02:04;;;;;;;1999.90;999.90;;;6.80;99.90;;;;;;5042528;28;20106;-67
2022/11/14 04:04:30;;;;;;;1999.90;999.90;;;6.80;99.90;;;;;;5040909;28;20473;-67
2022/11/14 04:06:55;;;;;;;1999.90;999.90;;;6.80;99.90;;;;;;5032511;28;20853;-67
2022/11/14 04:09:21;;;;;;;1999.90;999.90;;;6.80;99.90;;;;;;5035919;28;20492;-67
2022/11/14 04:11:46;;;;;;;1999.90;999.90;;;6.80;99.90;;;;;;5039685;28;20037;-67
2022/11/14 04:14:12;;;;;;;1999.90;999.90;;;6.80;99.90;;;;;;5040517;28;20041;-67
2022/11/14 04:16:38;;;;;;;1999.90;999.90;;;6.80;99.90;;;;;;5039514;28;20052;-67
2022/11/14 04:19:03;;;;;;;1999.90;999.90;;;6.80;99.90;;;;;;5035369;28;20175;-67
2022/11/14 04:21:29;;;;;;;1999.90;999.90;;;6.80;99.90;;;;;;5041781;28;20036;-67
2022/11/14 04:23:54;;;;;;;1999.90;999.90;;;6.80;99.90;;;;;;5036024;28;20042;-67
2022/11/14 04:26:20;;;;;;;1999.90;999.90;;;6.80;99.90;;;;;;5042161;28;20041;-67
2022/11/14 04:28:45;;;;;;;1999.90;999.90;;;6.80;99.90;;;;;;5037497;28;20607;-67
2022/11/14 04:31:11;;;;;;;1999.90;999.90;;;6.80;99.90;;;;;;5045376;28;20083;-67
2022/11/14 04:33:36;;;;;;;1999.90;999.90;;;6.80;99.90;;;;;;5035463;28;20045;-68
2022/11/14 04:36:02;;;;;;;1999.90;999.90;;;6.70;99.90;;;;;;5042209;28;20138;-67
2022/11/14 04:38:28;;;;;;;1999.90;999.90;;;6.70;99.90;;;;;;5041328;28;20072;-67
2022/11/14 04:40:53;;;;;;;1999.90;999.90;;;6.80;99.90;;;;;;5039949;28;20131;-67
2022/11/14 04:43:19;;;;;;;1999.90;999.90;;;6.70;99.90;;;;;;5044901;28;20040;-67
2022/11/14 04:45:45;;;;;;;1999.90;999.90;;;6.80;99.90;;;;;;5044821;28;20044;-67
2022/11/14 04:48:12;;;;;;;1999.90;999.90;;;6.70;99.90;;;;;;5041944;28;20408;-67
2022/11/14 04:50:38;;;;;;;1999.90;999.90;;;6.70;99.90;;;;;;5044128;28;20049;-67
2022/11/14 04:53:04;;;;;;;1999.90;999.90;;;6.70;99.90;;;;;;5025675;28;20087;-67
2022/11/14 04:55:30;;;;;;;1999.90;999.90;;;6.70;99.90;;;;;;5033241;28;20132;-67
2022/11/14 04:57:56;;;;;;;1999.90;999.90;;;6.70;99.90;;;;;;5040341;28;20135;-67
2022/11/14 05:00:23;;;;;;;1999.90;999.90;;;6.70;99.90;;;;;;5036965;28;20409;-67
2022/11/14 05:02:48;;;;;;;1999.90;999.90;;;6.70;99.90;;;;;;5039174;28;20044;-67
2022/11/14 05:05:14;;;;;;;1999.90;999.90;;;6.70;99.90;;;;;;5041948;28;20059;-67
2022/11/14 05:07:40;;;;;;;1999.90;999.90;;;6.70;99.90;;;;;;5043581;28;20879;-67
2022/11/14 05:10:07;;;;;;;1999.90;999.90;;;6.70;99.90;;;;;;5038317;28;20041;-67
2022/11/14 05:12:32;;;;;;;1999.90;999.90;;;6.70;99.90;;;;;;5042402;28;20076;-67
2022/11/14 05:14:58;;;;;;;1999.90;999.90;;;6.70;99.90;;;;;;5045262;28;20119;-67
2022/11/14 05:17:23;;;;;;;1999.90;999.90;;;6.80;99.90;;;;;;5043111;28;20048;-67
2022/11/14 05:19:49;;;;;;;1999.90;999.90;;;6.80;99.90;;;;;;5037487;28;20041;-67
2022/11/14 05:22:15;;;;;;;1999.90;999.90;;;6.70;99.90;;;;;;5038530;28;20041;-67
2022/11/14 05:24:40;;;;;;;1999.90;999.90;;;6.80;99.90;;;;;;5041429;28;20098;-67
2022/11/14 05:27:06;;;;;;;1999.90;999.90;;;6.80;99.90;;;;;;5038699;28;20041;-67
2022/11/14 05:29:31;;;;;;;1999.90;999.90;;;6.70;99.90;;;;;;5035956;28;20629;-67
2022/11/14 05:31:57;;;;;;;1999.90;999.90;;;6.70;99.90;;;;;;5043175;28;20068;-67
2022/11/14 05:34:23;;;;;;;1999.90;999.90;;;6.70;99.90;;;;;;5023168;28;20053;-67
2022/11/14 05:36:49;;;;;;;1999.90;999.90;;;6.70;99.90;;;;;;5041847;28;20768;-67
2022/11/14 05:39:15;;;;;;;1999.90;999.90;;;6.70;99.90;;;;;;5040929;28;20041;-67
2022/11/14 05:41:41;;;;;;;1999.90;999.90;;;6.70;99.90;;;;;;5041896;28;20049;-67
2022/11/14 05:44:06;;;;;;;1999.90;999.90;;;6.70;99.90;;;;;;5038725;28;20093;-67
2022/11/14 05:46:32;;;;;;;1999.90;999.90;;;6.70;99.90;;;;;;5034554;28;20033;-67
2022/11/14 05:48:58;;;;;;;1999.90;999.90;;;6.70;99.90;;;;;;5038086;28;20029;-67
2022/11/14 05:51:23;;;;;;;1999.90;999.90;;;6.70;99.90;;;;;;5035968;28;20115;-67
2022/11/14 05:53:49;;;;;;;1999.90;999.90;;;6.70;99.90;;;;;;5031991;28;20044;-67
2022/11/14 05:56:15;;;;;;;1999.90;999.90;;;6.70;99.90;;;;;;5029280;28;20046;-67
2022/11/14 05:58:40;;;;;;;1999.90;999.90;;;6.60;99.90;;;;;;5035781;28;20041;-67
2022/11/14 06:01:16;;;;;;;1999.90;999.90;;;6.60;99.90;;;;;;5040344;28;20041;-67
2022/11/14 06:03:44;;;;;;;1999.90;999.90;;;6.60;99.90;;;;;;5034865;28;20096;-67
2022/11/14 06:06:13;;;;;;;1999.90;999.90;;;6.60;99.90;;;;;;5042636;28;20041;-67
2022/11/14 06:08:39;;;;;;;1999.90;999.90;;;6.60;99.90;;;;;;5035783;28;20042;-67
2022/11/14 06:11:14;;;;;;;1999.90;999.90;;;6.60;99.90;;;;;;5040989;28;20116;-67
2022/11/14 06:13:40;;;;;;;1999.90;999.90;;;6.60;99.90;;;;;;5053210;28;20037;-67
2022/11/14 06:16:10;;;;;;;1999.90;999.90;;;6.60;99.90;;;;;;5041075;28;20403;-68
2022/11/14 06:18:36;;;;;;;1999.90;999.90;;;6.50;99.90;;;;;;5035070;28;20072;-67
2022/11/14 06:21:04;;;;;;;1999.90;999.90;;;6.50;99.90;;;;;;5037726;28;20111;-67
2022/11/14 06:23:30;;;;;;;1999.90;999.90;;;6.50;99.90;;;;;;5034397;28;20741;-67
2022/11/14 06:26:04;;;;;;;1999.90;999.90;;;6.50;99.90;;;;;;5037716;28;20079;-67
2022/11/14 06:28:30;;;;;;;1999.90;999.90;;;6.50;99.90;;;;;;5042855;28;20037;-67
2022/11/14 06:31:03;;;;;;;1999.90;999.90;;;6.50;99.90;;;;;;5034988;28;20036;-67
2022/11/14 06:33:33;;;;;;;1999.90;999.90;;;6.50;99.90;;;;;;5038788;28;20504;-67
2022/11/14 06:36:01;;;;;;;1999.90;999.90;;;6.50;99.90;;;;;;5046007;28;20050;-67
2022/11/14 06:38:27;;;;;;;1999.90;999.90;;;6.50;99.90;;;;;;5041522;28;20479;-67
2022/11/14 06:41:04;;;;;;;1999.90;999.90;;;6.50;99.90;;;;;;5044992;28;20037;-67
2022/11/14 06:43:32;;;;;;;1999.90;999.90;;;6.50;99.90;;;;;;5032697;28;20524;-67
2022/11/14 06:45:57;;;;;;;1999.90;999.90;;;6.50;99.90;;;;;;5039935;28;20401;-67
2022/11/14 06:48:23;;;;;;;1999.90;999.90;;;6.50;99.90;;;;;;5036826;28;20041;-67
2022/11/14 06:50:53;;;;;;;1999.90;999.90;;;6.50;99.90;;;;;;5038759;28;20044;-67
2022/11/14 06:53:19;;;;;;;1999.90;999.90;;;6.50;99.90;;;;;;5036939;28;20404;-67
2022/11/14 06:56:00;;;;;;;1999.90;999.90;;;6.50;99.90;;;;;;5032381;28;20067;-68
2022/11/14 06:58:31;;;;;;;1999.90;999.90;;;6.50;99.90;;;;;;5040843;28;20045;-67
2022/11/14 07:01:02;;;;;;;1999.90;999.90;;;6.50;99.90;;;;;;5034108;28;20044;-68
2022/11/14 07:03:28;;;;;;;1999.90;999.90;;;6.50;99.90;;;;;;5038065;28;20045;-67
2022/11/14 07:05:57;;;;;;;1999.90;999.90;;;6.40;99.90;;;;;;5023834;28;20045;-67
2022/11/14 07:08:22;;;;;;;1999.90;999.90;;;6.40;99.90;;;;;;5011360;28;20055;-67
2022/11/14 07:10:48;;;;;;;1999.90;999.90;;;6.40;99.90;;;;;;5031744;28;20037;-67
2022/11/14 07:13:14;;;;;;;1999.90;999.90;;;6.30;99.90;;;;;;5036367;28;20076;-66
2022/11/14 07:15:39;;;;;;;1999.90;999.90;;;6.30;99.90;;;;;;5016488;28;20120;-67
2022/11/14 07:18:05;;;;;;;1999.90;999.90;;;6.30;99.90;;;;;;5040592;28;20045;-67
2022/11/14 07:20:30;;;;;;;1999.90;999.90;;;6.30;99.90;;;;;;5034348;28;20033;-66
2022/11/14 07:22:56;;;;;;;1999.90;999.90;;;6.40;99.90;;;;;;5036647;28;20547;-66
2022/11/14 07:25:22;;;;;;;1999.90;999.90;;;6.30;99.90;;;;;;5036872;28;20052;-67
2022/11/14 07:27:47;;;;;;;1999.90;999.90;;;6.30;99.90;;;;;;5040045;28;20539;-67
2022/11/14 07:30:13;;;;;;;1999.90;999.90;;;6.40;99.90;;;;;;5036992;28;20069;-66
2022/11/14 07:32:39;;;;;;;1999.90;999.90;;;6.30;99.90;;;;;;5032975;28;20397;-66
2022/11/14 07:35:05;;;;;;;1999.90;999.90;;;6.30;99.90;;;;;;5044950;28;20560;-67
2022/11/14 07:37:30;;;;;;;1999.90;999.90;;;6.30;99.90;;;;;;5041277;28;20127;-67
2022/11/14 07:39:56;;;;;;;1999.90;999.90;;;6.30;99.90;;;;;;5042456;28;20132;-67
2022/11/14 07:42:21;;;;;;;1999.90;999.90;;;6.30;99.90;;;;;;5037951;28;20106;-67
2022/11/14 07:44:47;;;;;;;1999.90;999.90;;;6.30;99.90;;;;;;5037305;28;20072;-67
2022/11/14 07:47:12;;;;;;;1999.90;999.90;;;6.30;99.90;;;;;;5019567;28;20041;-67
2022/11/14 07:49:38;;;;;;;1999.90;999.90;;;6.40;99.90;;;;;;5037332;28;20033;-67
2022/11/14 07:52:04;;;;;;;1999.90;999.90;;;6.30;99.90;;;;;;5041474;28;20041;-67
2022/11/14 07:54:29;;;;;;;1999.90;999.90;;;6.30;99.90;;;;;;5044102;28;20119;-66
2022/11/14 07:56:55;;;;;;;1999.90;999.90;;;6.30;99.90;;;;;;5043292;28;20040;-67
2022/11/14 07:59:20;;;;;;;1999.90;999.90;;;6.30;99.90;;;;;;5042063;28;20045;-67
2022/11/14 08:01:46;;;;;;;1999.90;999.90;;;6.40;99.90;;;;;;5044042;28;20045;-67
2022/11/14 08:04:11;;;;;;;1999.90;999.90;;;6.40;99.90;;;;;;5041498;28;20037;-67
2022/11/14 08:06:37;;;;;;;1999.90;999.90;;;6.40;99.90;;;;;;5038985;28;20037;-67
2022/11/14 08:09:02;;;;;;;1999.90;999.90;;;6.40;99.90;;;;;;5046304;28;20163;-67
2022/11/14 08:14:12;;;;;;;1999.90;999.90;;;6.30;99.90;;;;;;5035558;28;20049;-66
2022/11/14 08:16:38;;;;;;;1999.90;999.90;;;6.30;99.90;;;;;;5036582;28;20052;-67
2022/11/14 08:19:04;;;;;;;1999.90;999.90;;;6.40;99.90;;;;;;5042577;28;20033;-66
2022/11/14 08:21:29;;;;;;;1999.90;999.90;;;6.40;99.90;;;;;;5040924;28;20045;-67
2022/11/14 08:23:55;;;;;;;1999.90;999.90;;;6.40;99.90;;;;;;5031031;28;20481;-67
2022/11/14 08:26:21;;;;;;;1999.90;999.90;;;6.50;99.90;;;;;;5024504;28;20102;-67
2022/11/14 08:28:46;;;;;;;1999.90;999.90;;;6.50;99.90;;;;;;5037432;28;20071;-67
2022/11/14 08:31:12;;;;;;;1999.90;999.90;;;6.50;99.90;;;;;;5037284;28;20103;-67
2022/11/14 08:33:38;;;;;;;1999.90;999.90;;;6.60;99.90;;;;;;5041801;28;20404;-67
2022/11/14 08:36:05;;;;;;;1999.90;999.90;;;6.60;99.90;;;;;;5017967;28;20040;-67
2022/11/14 08:38:33;;;;;;;1999.90;999.90;;;6.60;99.90;;;;;;5034739;28;20064;-67
2022/11/14 08:41:00;;;;;;;1999.90;999.90;;;6.70;99.90;;;;;;5037949;28;20075;-67
2022/11/14 08:43:25;;;;;;;1999.90;999.90;;;6.70;99.90;;;;;;5039673;28;20052;-67
2022/11/14 08:45:51;;;;;;;1999.90;999.90;;;6.70;99.90;;;;;;5037657;28;20045;-67
2022/11/14 08:48:16;;;;;;;1999.90;999.90;;;6.70;99.90;;;;;;5038464;28;20033;-67
2022/11/14 08:50:42;;;;;;;1999.90;999.90;;;6.70;99.90;;;;;;5042207;28;20044;-67
2022/11/14 08:53:08;;;;;;;1999.90;999.90;;;6.80;99.90;;;;;;5024643;28;20048;-67
2022/11/14 08:55:33;;;;;;;1999.90;999.90;;;6.80;99.90;;;;;;5023478;28;20047;-67
2022/11/14 08:57:59;;;;;;;1999.90;999.90;;;6.90;99.90;;;;;;5040447;28;20049;-67
2022/11/14 09:00:24;;;;;;;1999.90;999.90;;;6.90;99.90;;;;;;5022708;28;20481;-67
2022/11/14 09:02:50;;;;;;;1999.90;999.90;;;6.90;99.90;;;;;;5042851;28;20033;-67
2022/11/14 09:05:16;;;;;;;1999.90;999.90;;;7.00;99.90;;;;;;5042152;28;20539;-67
2022/11/14 09:07:41;;;;;;;1999.90;999.90;;;7.00;99.90;;;;;;5035004;28;20049;-67
2022/11/14 09:10:07;;;;;;;1999.90;999.90;;;7.10;99.90;;;;;;5026751;28;20040;-67
2022/11/14 09:12:33;;;;;;;1999.90;999.90;;;7.10;99.90;;;;;;5043927;28;20077;-67
2022/11/14 09:14:59;;;;;;;1999.90;999.90;;;7.10;99.90;;;;;;5025298;28;20033;-67
2022/11/14 09:17:24;;;;;;;1999.90;999.90;;;7.20;99.90;;;;;;5039882;28;20077;-67
2022/11/14 09:19:50;;;;;;;1999.90;999.90;;;7.30;99.90;;;;;;5037595;28;20037;-67
2022/11/14 09:22:16;;;;;;;1999.90;999.90;;;7.40;99.90;;;;;;5037604;28;20371;-67
2022/11/14 09:24:42;;;;;;;1999.90;999.90;;;7.60;99.90;;;;;;5036591;28;20068;-67
2022/11/14 09:27:07;;;;;;;1999.90;999.90;;;7.60;99.90;;;;;;5020061;28;20155;-67
2022/11/14 09:29:33;;;;;;;1999.90;999.90;;;7.60;99.90;;;;;;5035961;28;20037;-67
2022/11/14 09:31:59;;;;;;;1999.90;999.90;;;7.60;99.90;;;;;;5036555;28;20036;-67
2022/11/14 09:34:24;;;;;;;1999.90;999.90;;;7.70;99.90;;;;;;5035080;28;20064;-68
2022/11/14 09:36:50;;;;;;;1999.90;999.90;;;7.80;99.90;;;;;;5037360;28;20032;-67
2022/11/14 09:39:15;;;;;;;1999.90;999.90;;;8.00;99.90;;;;;;5034812;28;20030;-67
2022/11/14 09:42:07;;;;;;;1999.90;999.90;;;8.10;99.90;;;;;;5031312;28;20072;-68
2022/11/14 09:45:01;;;;;;;1999.90;999.90;;;8.20;99.90;;;;;;5037940;28;20128;-67
2022/11/14 09:47:37;;;;;;;1999.90;999.90;;;8.20;99.90;;;;;;5039698;28;20475;-67
2022/11/14 09:50:15;;;;;;;1999.90;999.90;;;8.30;99.90;;;;;;5033961;28;20041;-67
2022/11/14 09:52:46;;;;;;;1999.90;999.90;;;8.50;99.90;;;;;;5039872;28;20055;-67
2022/11/14 09:55:29;;;;;;;1999.90;999.90;;;8.60;99.90;;;;;;5037394;28;20129;-67
2022/11/14 09:57:55;;;;;;;1999.90;999.90;;;8.60;99.90;;;;;;5039717;28;20040;-67
2022/11/14 10:00:22;;;;;;;1999.90;999.90;;;8.60;99.90;;;;;;5038689;28;20071;-67
2022/11/14 10:03:13;;;;;;;1999.90;999.90;;;8.50;99.90;;;;;;5036088;28;20128;-67
2022/11/14 10:05:51;;;;;;;1999.90;999.90;;;8.60;99.90;;;;;;5037992;28;20067;-67
2022/11/14 10:08:30;;;;;;;1999.90;999.90;;;8.80;99.90;;;;;;5019683;28;20045;-67
2022/11/14 10:11:24;;;;;;;1999.90;999.90;;;8.90;99.90;;;;;;5037794;28;20049;-67
2022/11/14 10:14:01;;;;;;;1999.90;999.90;;;9.00;99.90;;;;;;5023061;28;20077;-67
2022/11/14 10:16:51;;;;;;;1999.90;999.90;;;9.20;99.90;;;;;;5039669;28;20048;-67
2022/11/14 10:19:19;;;;;;;1999.90;999.90;;;9.40;99.90;;;;;;5043338;28;20481;-67
2022/11/14 10:21:50;;;;;;;1999.90;999.90;;;9.50;99.90;;;;;;5020754;28;20397;-68
2022/11/14 10:24:31;;;;;;;1999.90;999.90;;;9.60;99.90;;;;;;5036917;28;20459;-67
2022/11/14 10:27:02;;;;;;;1999.90;999.90;;;9.70;99.90;;;;;;5043852;28;20049;-68
2022/11/14 10:29:28;;;;;;;1999.90;999.90;;;9.60;99.90;;;;;;5031041;28;20052;-67
2022/11/14 10:32:31;;;;;;;1999.90;999.90;;;9.70;99.90;;;;;;5030734;28;20045;-67
2022/11/14 10:35:27;;;;;;;1999.90;999.90;;;9.90;99.90;;;;;;5039524;28;20033;-68
2022/11/14 10:38:13;;;;;;;1999.90;999.90;;;10.10;99.90;;;;;;5039461;28;20036;-67
2022/11/14 10:40:48;;;;;;;1999.90;999.90;;;10.20;99.90;;;;;;5025581;28;20460;-68
2022/11/14 10:43:14;;;;;;;1999.90;999.90;;;10.20;99.90;;;;;;5045729;28;20508;-68
2022/11/14 10:45:44;;;;;;;1999.90;999.90;;;10.30;99.90;;;;;;5049020;28;20489;-67
2022/11/14 10:48:14;;;;;;;1999.90;999.90;;;10.30;99.90;;;;;;5039482;28;20500;-68
2022/11/14 10:51:07;;;;;;;1999.90;999.90;;;10.30;99.90;;;;;;5043711;28;20090;-68
2022/11/14 10:53:57;;;;;;;1999.90;999.90;;;10.40;99.90;;;;;;5043008;28;20047;-68
2022/11/14 10:56:22;;;;;;;1999.90;999.90;;;10.30;99.90;;;;;;5037849;28;20106;-67
2022/11/14 10:58:48;;;;;;;1999.90;999.90;;;10.20;99.90;;;;;;5038809;28;20037;-68
2022/11/14 11:01:43;;;;;;;1999.90;999.90;;;10.00;99.90;;;;;;5038069;28;20041;-68
2022/11/14 11:04:27;;;;;;;1999.90;999.90;;;9.80;99.90;;;;;;5027250;28;20529;-67
2022/11/14 11:06:55;;;;;;;1999.90;999.90;;;9.60;99.90;;;;;;5054351;28;20042;-67
2022/11/14 11:12:16;;;;;;;1999.90;999.90;;;9.20;99.90;;;;;;5038158;28;20118;-67
2022/11/14 11:14:46;;;;;;;1999.90;999.90;;;9.10;99.90;;;;;;5037114;28;20094;-67
2022/11/14 11:17:11;;;;;;;1999.90;999.90;;;9.00;99.90;;;;;;5038112;28;20057;-67
2022/11/14 11:19:41;;;;;;;1999.90;999.90;;;9.10;99.90;;;;;;5036106;28;20095;-67
2022/11/14 11:22:35;;;;;;;1999.90;999.90;;;9.10;99.90;;;;;;5036320;28;20555;-67
2022/11/14 11:25:02;;;;;;;1999.90;999.90;;;9.10;99.90;;;;;;5033231;28;20053;-67
2022/11/14 11:27:29;;;;;;;1999.90;999.90;;;9.00;99.90;;;;;;5036893;28;21204;-67
2022/11/14 11:30:06;;;;;;;1999.90;999.90;;;9.10;99.90;;;;;;5051459;28;20615;-67
2022/11/14 11:32:31;;;;;;;1999.90;999.90;;;9.10;99.90;;;;;;5038216;28;20084;-67
2022/11/14 11:34:59;;;;;;;1999.90;999.90;;;9.20;99.90;;;;;;5037455;28;20476;-67
2022/11/14 11:37:29;;;;;;;1999.90;999.90;;;9.40;99.90;;;;;;5038910;28;20938;-68
2022/11/14 11:40:00;;;;;;;1999.90;999.90;;;9.50;99.90;;;;;;5031635;28;20049;-67
2022/11/14 11:42:36;;;;;;;1999.90;999.90;;;9.60;99.90;;;;;;5032533;28;20049;-67
2022/11/14 11:45:08;;;;;;;1999.90;999.90;;;9.60;99.90;;;;;;5036381;28;20053;-67
2022/11/14 11:47:35;;;;;;;1999.90;999.90;;;9.80;99.90;;;;;;5020616;28;20073;-67
2022/11/14 11:50:01;;;;;;;1999.90;999.90;;;9.80;99.90;;;;;;5039261;28;20076;-67
2022/11/14 11:52:38;;;;;;;1999.90;999.90;;;9.90;99.90;;;;;;5036315;28;20444;-67
2022/11/14 11:55:15;;;;;;;1999.90;999.90;;;9.90;99.90;;;;;;5032471;28;20481;-67
2022/11/14 11:57:50;;;;;;;1999.90;999.90;;;9.80;99.90;;;;;;5038530;28;20128;-67
2022/11/14 12:00:19;;;;;;;1999.90;999.90;;;9.80;99.90;;;;;;5033140;28;20463;-67
2022/11/14 12:02:47;;;;;;;1999.90;999.90;;;9.80;99.90;;;;;;5033171;28;21103;-67
2022/11/14 12:05:21;;;;;;;1999.90;999.90;;;9.90;99.90;;;;;;5032471;28;20073;-67
2022/11/14 12:08:00;;;;;;;1999.90;999.90;;;10.00;99.90;;;;;;5037618;28;20045;-67
2022/11/14 12:10:29;;;;;;;1999.90;999.90;;;10.00;99.90;;;;;;5038443;28;20049;-67
2022/11/14 12:13:29;;;;;;;1999.90;999.90;;;10.00;99.90;;;;;;5037109;28;20055;-68
2022/11/14 12:16:13;;;;;;;1999.90;999.90;;;10.00;99.90;;;;;;5033078;28;20148;-67
2022/11/14 12:18:58;;;;;;;1999.90;999.90;;;10.00;99.90;;;;;;5016137;28;20045;-67
2022/11/14 12:22:20;;;;;;;1999.90;999.90;;;10.00;99.90;;;;;;5035835;28;20068;-67